Time;durP1;ratioP1;P1;durP2;ratioP2;P2;SDS_P1;SDS_P2;PMS_P1;PMS_P2;Temp;Humidity;BMP_temperature;BMP_pressure;BME280_temperature;BME280_humidity;BME280_pressure;Samples;Min_cycle;Max_cycle;Signal;HPM_P1;HPM_P2
2022/11/05 00:16:42;;;;;;;18.20;10.50;;;6.20;99.90;;;;;;4991404;28;20205;-64
2022/11/05 00:16:59;;;;;;;19.50;11.00;;;6.30;99.90;;;;;;4996668;28;20202;-64
2022/11/05 00:19:27;;;;;;;21.53;11.17;;;6.20;99.90;;;;;;4999029;28;20244;-64
2022/11/05 00:27:26;;;;;;;23.70;11.40;;;6.30;99.90;;;;;;5004004;28;20202;-64
2022/11/05 00:29:55;;;;;;;20.93;11.40;;;6.20;99.90;;;;;;5003242;28;20558;-64
2022/11/05 00:32:24;;;;;;;16.00;11.10;;;6.20;99.90;;;;;;5004759;28;20602;-64
2022/11/05 00:34:52;;;;;;;20.83;12.10;;;6.20;99.90;;;;;;5025983;28;20201;-64
2022/11/05 00:37:21;;;;;;;19.43;11.37;;;6.20;99.90;;;;;;5000771;28;20197;-64
2022/11/05 00:39:49;;;;;;;17.87;11.23;;;6.20;99.90;;;;;;5007140;28;20197;-64
2022/11/05 00:45:04;;;;;;;23.13;11.17;;;6.20;99.90;;;;;;4987826;28;20202;-64
2022/11/05 00:50:22;;;;;;;21.07;11.17;;;6.20;99.90;;;;;;4999032;28;20200;-64
2022/11/05 00:52:58;;;;;;;14.87;10.40;;;6.20;99.90;;;;;;5005019;28;20553;-64
2022/11/05 00:55:33;;;;;;;20.30;11.10;;;6.20;99.90;;;;;;5000951;28;20214;-64
2022/11/05 00:58:03;;;;;;;21.70;10.83;;;6.10;99.90;;;;;;4993966;28;20632;-64
2022/11/05 01:00:33;;;;;;;18.80;11.87;;;6.10;99.90;;;;;;5022046;28;20191;-64
2022/11/05 01:03:05;;;;;;;20.83;11.00;;;6.10;99.90;;;;;;5004574;28;20235;-64
2022/11/05 01:05:34;;;;;;;22.33;11.70;;;6.10;99.90;;;;;;5023521;28;20579;-64
2022/11/05 01:08:03;;;;;;;27.57;11.43;;;6.10;99.90;;;;;;4981922;28;20191;-64
2022/11/05 01:10:31;;;;;;;18.70;10.73;;;6.10;99.90;;;;;;4999504;28;20601;-64
2022/11/05 01:13:02;;;;;;;28.73;10.67;;;6.20;99.90;;;;;;4993914;28;20225;-64
2022/11/05 01:15:37;;;;;;;21.60;11.03;;;6.20;99.90;;;;;;5006754;28;20717;-64
2022/11/05 01:18:07;;;;;;;15.70;9.90;;;6.20;99.90;;;;;;5004163;28;20236;-64
2022/11/05 01:20:35;;;;;;;19.50;10.67;;;6.20;99.90;;;;;;5028901;28;20306;-64
2022/11/05 01:23:03;;;;;;;24.33;11.07;;;6.20;99.90;;;;;;5001581;28;20218;-64
2022/11/05 01:25:40;;;;;;;22.57;10.60;;;6.20;99.90;;;;;;5008769;28;20552;-64
2022/11/05 01:28:09;;;;;;;17.70;10.53;;;6.10;99.90;;;;;;5006494;28;20556;-64
2022/11/05 01:30:38;;;;;;;24.70;9.93;;;6.00;99.90;;;;;;4996544;28;20277;-64
2022/11/05 01:33:08;;;;;;;21.90;10.07;;;6.00;99.90;;;;;;4999131;28;20203;-64
2022/11/05 01:35:36;;;;;;;19.90;9.57;;;6.00;99.90;;;;;;5003031;28;20234;-64
2022/11/05 01:38:05;;;;;;;13.90;9.07;;;6.00;99.90;;;;;;5029287;28;20195;-64
2022/11/05 01:40:33;;;;;;;16.43;9.50;;;5.90;99.90;;;;;;5005496;28;20522;-64
2022/11/05 01:43:01;;;;;;;27.37;9.83;;;5.90;99.90;;;;;;5007993;28;20207;-64
2022/11/05 01:45:30;;;;;;;17.13;9.53;;;5.80;99.90;;;;;;4997880;28;20252;-64
2022/11/05 01:48:03;;;;;;;15.57;10.00;;;5.80;99.90;;;;;;5010832;28;20281;-64
2022/11/05 01:50:37;;;;;;;24.40;10.20;;;5.70;99.90;;;;;;4999564;28;20218;-64
2022/11/05 01:53:12;;;;;;;23.13;9.90;;;5.70;99.90;;;;;;5014722;28;20201;-64
2022/11/05 01:55:44;;;;;;;22.43;10.77;;;5.70;99.90;;;;;;5007000;28;20222;-64
2022/11/05 01:58:20;;;;;;;15.93;9.73;;;5.60;99.90;;;;;;5003550;28;20200;-64
2022/11/05 02:00:49;;;;;;;16.63;10.00;;;5.50;99.90;;;;;;5008585;28;20197;-64
2022/11/05 02:03:18;;;;;;;20.97;10.40;;;5.50;99.90;;;;;;5017057;28;20206;-64
2022/11/05 02:05:50;;;;;;;19.50;9.97;;;5.50;99.90;;;;;;5003329;28;20216;-64
2022/11/05 02:08:29;;;;;;;16.47;10.63;;;5.40;99.90;;;;;;4995293;28;20202;-64
2022/11/05 02:10:58;;;;;;;21.07;10.80;;;5.40;99.90;;;;;;5004384;28;20199;-64
2022/11/05 02:13:26;;;;;;;17.00;10.03;;;5.40;99.90;;;;;;5006562;28;20193;-64
2022/11/05 02:16:03;;;;;;;25.10;11.83;;;5.50;99.90;;;;;;5003754;28;20661;-64
2022/11/05 02:18:46;;;;;;;17.63;10.17;;;5.60;99.90;;;;;;4993891;28;20226;-64
2022/11/05 02:21:37;;;;;;;21.60;10.33;;;5.50;99.90;;;;;;5006927;28;20221;-64
2022/11/05 02:24:32;;;;;;;14.67;9.67;;;5.50;99.90;;;;;;5001931;28;20201;-64
2022/11/05 02:27:43;;;;;;;18.53;10.17;;;5.40;99.90;;;;;;4996232;28;20206;-64
2022/11/05 02:30:38;;;;;;;23.17;10.33;;;5.40;99.90;;;;;;4997307;28;20219;-64
2022/11/05 02:33:14;;;;;;;16.37;11.20;;;5.30;99.90;;;;;;5002853;28;20202;-64
2022/11/05 02:35:59;;;;;;;17.77;10.60;;;5.40;99.90;;;;;;5003953;28;20211;-64
2022/11/05 02:38:39;;;;;;;21.43;10.80;;;5.30;99.90;;;;;;5010326;28;20388;-64
2022/11/05 02:41:13;;;;;;;18.50;11.13;;;5.30;99.90;;;;;;5011219;28;20583;-64
2022/11/05 02:43:52;;;;;;;19.07;11.20;;;5.30;99.90;;;;;;4994868;28;20198;-64
2022/11/05 02:46:34;;;;;;;15.73;10.43;;;5.30;99.90;;;;;;5007409;28;20202;-64
2022/11/05 02:49:13;;;;;;;20.07;11.40;;;5.30;99.90;;;;;;4993292;28;20199;-64
2022/11/05 02:51:49;;;;;;;22.73;11.80;;;5.40;99.90;;;;;;5016991;28;20197;-64
2022/11/05 02:54:23;;;;;;;22.23;12.00;;;5.40;99.90;;;;;;4999602;28;20262;-64
2022/11/05 02:56:54;;;;;;;19.97;11.57;;;5.50;99.90;;;;;;5010272;28;20210;-64
2022/11/05 02:59:23;;;;;;;23.90;12.30;;;5.50;99.90;;;;;;5002422;28;20206;-64
2022/11/05 03:01:53;;;;;;;29.00;13.07;;;5.50;99.90;;;;;;4999840;28;20203;-64
2022/11/05 03:04:23;;;;;;;26.17;13.43;;;5.50;99.90;;;;;;5015923;28;20284;-64
2022/11/05 03:07:07;;;;;;;19.77;12.33;;;5.60;99.90;;;;;;5008871;28;20190;-64
2022/11/05 03:10:09;;;;;;;19.73;11.77;;;5.60;99.90;;;;;;4997882;28;20190;-64
2022/11/05 03:12:46;;;;;;;20.83;11.93;;;5.60;99.90;;;;;;4994397;28;20220;-64
2022/11/05 03:15:26;;;;;;;24.10;11.90;;;5.70;99.90;;;;;;5007921;28;20198;-64
2022/11/05 03:18:06;;;;;;;22.80;12.27;;;5.70;99.90;;;;;;4992296;28;20234;-64
2022/11/05 03:20:39;;;;;;;17.73;10.50;;;5.80;99.90;;;;;;5003793;28;20222;-64
2022/11/05 03:23:14;;;;;;;16.77;11.67;;;5.80;99.90;;;;;;5000542;28;20201;-64
2022/11/05 03:25:47;;;;;;;22.27;11.30;;;5.80;99.90;;;;;;4996752;28;20192;-64
2022/11/05 03:28:19;;;;;;;20.30;11.83;;;5.90;99.90;;;;;;5001044;28;20195;-64
2022/11/05 03:30:50;;;;;;;18.60;11.50;;;5.90;99.90;;;;;;4997588;28;20204;-64
2022/11/05 03:33:25;;;;;;;19.40;10.17;;;5.80;99.90;;;;;;4997147;28;20656;-64
2022/11/05 03:35:56;;;;;;;23.57;10.80;;;5.80;99.90;;;;;;4994765;28;20198;-64
2022/11/05 03:38:32;;;;;;;21.00;11.40;;;5.70;99.90;;;;;;4996006;28;20200;-64
2022/11/05 03:41:06;;;;;;;20.23;12.00;;;5.70;99.90;;;;;;4993852;28;20273;-64
2022/11/05 03:43:37;;;;;;;21.93;10.83;;;5.70;99.90;;;;;;4997307;28;20194;-64
2022/11/05 03:46:09;;;;;;;19.53;11.00;;;5.70;99.90;;;;;;5001284;28;20729;-64
2022/11/05 03:48:44;;;;;;;18.60;10.80;;;5.70;99.90;;;;;;4997043;28;20203;-64
2022/11/05 03:51:18;;;;;;;18.30;10.93;;;5.70;99.90;;;;;;5054410;28;20203;-64
2022/11/05 03:53:50;;;;;;;19.60;11.00;;;5.70;99.90;;;;;;5018373;28;20759;-64
2022/11/05 03:56:25;;;;;;;21.10;11.03;;;5.70;99.90;;;;;;4996514;28;20202;-64
2022/11/05 03:58:56;;;;;;;18.27;11.20;;;5.60;99.90;;;;;;5008515;28;20197;-64
2022/11/05 04:01:26;;;;;;;20.23;11.23;;;5.60;99.90;;;;;;5002964;28;21116;-64
2022/11/05 04:03:56;;;;;;;18.10;11.33;;;5.60;99.90;;;;;;4993727;28;20190;-64
2022/11/05 04:14:43;;;;;;;17.90;11.30;;;5.70;99.90;;;;;;5002529;28;20214;-64
2022/11/05 04:17:11;;;;;;;17.87;10.67;;;5.70;99.90;;;;;;4996555;28;20228;-64
2022/11/05 04:25:17;;;;;;;19.97;11.23;;;5.70;99.90;;;;;;4999757;28;20222;-64
2022/11/05 04:27:46;;;;;;;15.70;10.80;;;5.70;99.90;;;;;;5002375;28;20191;-64
2022/11/05 04:30:19;;;;;;;15.13;11.03;;;5.70;99.90;;;;;;5008074;28;20201;-64
2022/11/05 04:33:03;;;;;;;18.00;11.03;;;5.70;99.90;;;;;;5004219;28;20202;-64
2022/11/05 04:35:34;;;;;;;19.13;10.47;;;5.70;99.90;;;;;;5019244;28;20204;-64
2022/11/05 04:38:03;;;;;;;14.13;10.77;;;5.70;99.90;;;;;;5005546;28;20305;-64
2022/11/05 04:40:32;;;;;;;15.93;10.40;;;5.60;99.90;;;;;;4995434;28;20198;-64
2022/11/05 04:43:00;;;;;;;15.47;10.03;;;5.50;99.90;;;;;;4999504;28;20206;-64
2022/11/05 04:45:33;;;;;;;15.17;10.53;;;5.50;99.90;;;;;;4999107;28;20194;-64
2022/11/05 04:48:01;;;;;;;21.77;11.77;;;5.50;99.90;;;;;;4999160;28;20191;-64
2022/11/05 04:50:32;;;;;;;15.07;10.97;;;5.40;99.90;;;;;;5005324;28;20198;-64
2022/11/05 04:53:00;;;;;;;16.20;10.97;;;5.40;99.90;;;;;;5011405;28;20205;-64
2022/11/05 04:55:29;;;;;;;16.30;10.33;;;5.40;99.90;;;;;;4996661;28;20198;-64
2022/11/05 04:57:59;;;;;;;15.23;10.23;;;5.40;99.90;;;;;;4994078;28;20222;-64
2022/11/05 05:00:27;;;;;;;18.43;9.77;;;5.30;99.90;;;;;;4998424;28;20187;-64
2022/11/05 05:03:06;;;;;;;14.77;9.90;;;5.30;99.90;;;;;;4998551;28;20549;-63
2022/11/05 05:05:36;;;;;;;18.03;11.03;;;5.30;99.90;;;;;;5032630;28;20197;-64
2022/11/05 05:08:05;;;;;;;17.03;10.40;;;5.20;99.90;;;;;;5008886;28;20525;-64
2022/11/05 05:10:34;;;;;;;16.23;10.27;;;5.10;99.90;;;;;;5045942;28;20202;-64
2022/11/05 05:13:02;;;;;;;22.53;12.27;;;5.00;99.90;;;;;;4998366;28;20207;-64
2022/11/05 05:15:30;;;;;;;18.13;10.87;;;5.00;99.90;;;;;;5002736;28;20209;-64
2022/11/05 05:17:59;;;;;;;20.97;11.27;;;5.00;99.90;;;;;;5004136;28;20242;-64
2022/11/05 05:23:15;;;;;;;19.67;11.63;;;5.00;99.90;;;;;;5002666;28;20560;-64
2022/11/05 05:25:43;;;;;;;19.03;12.23;;;5.00;99.90;;;;;;5004149;28;20652;-64
2022/11/05 05:28:11;;;;;;;20.23;12.80;;;4.90;99.90;;;;;;4999332;28;20187;-64
2022/11/05 05:30:40;;;;;;;23.13;12.93;;;5.00;99.90;;;;;;5002502;28;20697;-64
2022/11/05 05:33:08;;;;;;;24.40;12.57;;;4.90;99.90;;;;;;5009756;28;20638;-64
2022/11/05 05:35:36;;;;;;;21.77;13.03;;;5.00;99.90;;;;;;4998640;28;20283;-64
2022/11/05 05:38:05;;;;;;;22.47;13.10;;;5.00;99.90;;;;;;4999033;28;20647;-64
2022/11/05 05:40:34;;;;;;;21.07;13.40;;;5.00;99.90;;;;;;4997132;28;20202;-64
2022/11/05 05:43:06;;;;;;;26.63;13.37;;;4.90;99.90;;;;;;5002987;28;20199;-64
2022/11/05 05:45:35;;;;;;;23.10;13.10;;;5.00;99.90;;;;;;5032007;28;20203;-64
2022/11/05 05:48:04;;;;;;;25.73;13.43;;;5.00;99.90;;;;;;4994494;28;20195;-64
2022/11/05 05:50:32;;;;;;;27.80;14.40;;;5.00;99.90;;;;;;5005639;28;20199;-64
2022/11/05 05:53:01;;;;;;;25.03;15.17;;;5.00;99.90;;;;;;4991295;28;20199;-64
2022/11/05 05:55:29;;;;;;;26.70;13.90;;;5.10;99.90;;;;;;5000546;28;20205;-64
2022/11/05 05:57:59;;;;;;;23.80;13.87;;;5.10;99.90;;;;;;4996654;28;20218;-64
2022/11/05 06:00:27;;;;;;;29.40;15.07;;;5.10;99.90;;;;;;5006127;28;20202;-64
2022/11/05 06:02:56;;;;;;;23.93;14.37;;;5.20;99.90;;;;;;5003094;28;20202;-64
2022/11/05 06:05:24;;;;;;;23.10;14.43;;;5.20;99.90;;;;;;5003168;28;20194;-64
2022/11/05 06:07:56;;;;;;;20.97;13.43;;;5.20;99.90;;;;;;5002748;28;20191;-64
2022/11/05 06:10:25;;;;;;;25.43;13.43;;;5.10;99.90;;;;;;5011122;28;20193;-64
2022/11/05 06:12:53;;;;;;;27.30;15.47;;;5.10;99.90;;;;;;5010615;28;20202;-64
2022/11/05 06:15:23;;;;;;;22.20;13.80;;;5.00;99.90;;;;;;5004230;28;20198;-64
2022/11/05 06:17:51;;;;;;;27.63;14.10;;;4.90;99.90;;;;;;5013663;28;20253;-64
2022/11/05 06:20:19;;;;;;;22.27;14.17;;;4.80;99.90;;;;;;5014302;28;20218;-64
2022/11/05 06:22:54;;;;;;;20.40;13.53;;;4.70;99.90;;;;;;5010409;28;20206;-64
2022/11/05 06:25:22;;;;;;;26.63;14.90;;;4.60;99.90;;;;;;5011799;28;20193;-64
2022/11/05 06:27:51;;;;;;;23.07;15.03;;;4.60;99.90;;;;;;5007805;28;20190;-64
2022/11/05 06:30:20;;;;;;;23.73;14.13;;;4.50;99.90;;;;;;5007377;28;20202;-64
2022/11/05 06:32:50;;;;;;;29.20;14.77;;;4.50;99.90;;;;;;4998025;28;20277;-64
2022/11/05 06:35:18;;;;;;;25.33;14.50;;;4.50;99.90;;;;;;4992930;28;20207;-64
2022/11/05 06:37:47;;;;;;;27.93;14.97;;;4.40;99.90;;;;;;5003160;28;20245;-64
2022/11/05 06:40:15;;;;;;;26.83;15.33;;;4.50;99.90;;;;;;4999924;28;20676;-64
2022/11/05 06:42:43;;;;;;;32.63;16.10;;;4.50;99.90;;;;;;5001923;28;20205;-64
2022/11/05 06:45:11;;;;;;;31.93;16.50;;;4.50;99.90;;;;;;5004201;28;20201;-64
2022/11/05 06:47:39;;;;;;;33.50;16.20;;;4.50;99.90;;;;;;4998443;28;20202;-64
2022/11/05 06:50:09;;;;;;;28.80;15.77;;;4.40;99.90;;;;;;4980725;28;20199;-64
2022/11/05 06:52:38;;;;;;;31.03;15.90;;;4.40;99.90;;;;;;4999076;28;20251;-64
2022/11/05 06:55:09;;;;;;;32.53;16.47;;;4.50;99.90;;;;;;5003811;28;20217;-63
2022/11/05 06:57:38;;;;;;;34.63;17.33;;;4.50;99.90;;;;;;5015193;28;20193;-64
2022/11/05 07:00:08;;;;;;;33.80;17.10;;;4.50;99.90;;;;;;5006211;27;20202;-64
2022/11/05 07:02:36;;;;;;;28.27;16.33;;;4.60;99.90;;;;;;5043767;28;20198;-64
2022/11/05 07:05:06;;;;;;;34.40;18.07;;;4.60;99.90;;;;;;5005777;28;20198;-64
2022/11/05 07:07:35;;;;;;;34.60;16.83;;;4.60;99.90;;;;;;5005521;28;20186;-64
2022/11/05 07:10:04;;;;;;;32.07;16.73;;;4.60;99.90;;;;;;4995554;28;20202;-64
2022/11/05 07:12:32;;;;;;;28.37;17.10;;;4.70;99.90;;;;;;4994343;28;20206;-64
2022/11/05 07:15:00;;;;;;;29.77;16.17;;;4.60;99.90;;;;;;4993814;28;20538;-64
2022/11/05 07:17:29;;;;;;;28.10;16.60;;;4.60;99.90;;;;;;4992774;28;20195;-62
2022/11/05 07:19:57;;;;;;;31.50;16.97;;;4.70;99.90;;;;;;5001037;28;20253;-64
2022/11/05 07:22:25;;;;;;;35.87;16.63;;;4.80;99.90;;;;;;5000739;28;20186;-64
2022/11/05 07:24:55;;;;;;;31.87;15.93;;;4.80;99.90;;;;;;5002521;28;20204;-64
2022/11/05 07:27:23;;;;;;;30.17;15.83;;;4.80;99.90;;;;;;4998724;28;20209;-63
2022/11/05 07:29:52;;;;;;;29.50;16.07;;;4.90;99.90;;;;;;5005542;28;20199;-63
2022/11/05 07:32:20;;;;;;;30.63;16.50;;;4.90;99.90;;;;;;5006641;28;20561;-63
2022/11/05 07:34:48;;;;;;;29.37;16.00;;;5.00;99.90;;;;;;5002890;28;20540;-63
2022/11/05 07:37:16;;;;;;;28.00;14.90;;;5.00;99.90;;;;;;5009241;28;20195;-64
2022/11/05 07:39:45;;;;;;;30.00;15.77;;;5.10;99.90;;;;;;5025668;28;20676;-64
2022/11/05 07:42:14;;;;;;;25.60;15.70;;;5.10;99.90;;;;;;5006511;28;20213;-64
2022/11/05 07:44:43;;;;;;;31.77;16.77;;;5.20;99.90;;;;;;5003238;28;20580;-64
2022/11/05 07:47:11;;;;;;;30.90;15.70;;;5.30;99.90;;;;;;5022135;28;20629;-64
2022/11/05 07:49:39;;;;;;;28.73;16.10;;;5.40;99.90;;;;;;5002923;28;20260;-64
2022/11/05 07:52:08;;;;;;;31.90;16.43;;;5.60;99.90;;;;;;5005659;28;20210;-64
2022/11/05 07:54:36;;;;;;;29.73;15.63;;;5.70;99.90;;;;;;5001988;28;20190;-64
2022/11/05 07:57:07;;;;;;;29.63;15.50;;;5.90;99.90;;;;;;5000178;28;20198;-64
2022/11/05 07:59:37;;;;;;;24.93;13.83;;;6.10;99.90;;;;;;4996953;28;20221;-64
2022/11/05 08:02:05;;;;;;;32.43;14.10;;;6.30;99.90;;;;;;5005745;28;20205;-64
2022/11/05 08:04:34;;;;;;;26.17;13.77;;;6.50;99.90;;;;;;5001599;28;20626;-64
2022/11/05 08:07:02;;;;;;;24.43;12.53;;;6.70;99.90;;;;;;5003832;28;20194;-64
2022/11/05 08:09:30;;;;;;;22.47;11.87;;;6.80;99.90;;;;;;5006632;28;20183;-64
2022/11/05 08:11:59;;;;;;;19.97;11.73;;;6.80;99.90;;;;;;5011560;28;20202;-64
2022/11/05 08:14:30;;;;;;;24.60;11.10;;;6.90;99.90;;;;;;4994867;28;20246;-64
2022/11/05 08:17:00;;;;;;;19.07;10.00;;;6.90;99.90;;;;;;5012626;28;20190;-64
2022/11/05 08:19:28;;;;;;;20.43;9.57;;;7.10;99.90;;;;;;5005189;28;20598;-64
2022/11/05 08:21:56;;;;;;;25.97;9.97;;;7.10;99.90;;;;;;4995516;28;20210;-64
2022/11/05 08:24:24;;;;;;;19.03;9.53;;;7.10;99.90;;;;;;4995819;28;20198;-64
2022/11/05 08:26:53;;;;;;;18.23;9.60;;;7.20;99.90;;;;;;4999915;28;20209;-64
2022/11/05 08:29:21;;;;;;;15.07;8.73;;;7.30;99.90;;;;;;5038790;28;20194;-64
2022/11/05 08:31:50;;;;;;;18.97;9.23;;;7.50;99.90;;;;;;5010922;28;20201;-64
2022/11/05 08:34:19;;;;;;;19.37;8.83;;;7.60;99.90;;;;;;4991820;28;20187;-64
2022/11/05 08:36:47;;;;;;;17.17;8.83;;;7.70;99.90;;;;;;5020622;28;20200;-64
2022/11/05 08:39:17;;;;;;;14.23;8.37;;;7.90;99.90;;;;;;5001287;28;20685;-64
2022/11/05 08:41:46;;;;;;;17.60;8.17;;;7.90;99.90;;;;;;4995638;28;20195;-64
2022/11/05 08:44:14;;;;;;;15.50;7.63;;;8.00;99.90;;;;;;4994299;28;20195;-64
2022/11/05 08:46:42;;;;;;;18.00;8.07;;;8.00;99.90;;;;;;4996879;28;20214;-64
2022/11/05 08:49:11;;;;;;;14.80;7.83;;;8.00;99.90;;;;;;5005254;28;20195;-64
2022/11/05 08:51:41;;;;;;;12.47;7.60;;;8.00;99.90;;;;;;5003384;28;20194;-64
2022/11/05 08:54:09;;;;;;;11.07;7.13;;;8.10;99.90;;;;;;5006428;28;20203;-64
2022/11/05 08:56:37;;;;;;;13.50;7.53;;;8.10;99.90;;;;;;4999555;28;20201;-64
2022/11/05 08:59:06;;;;;;;13.97;7.10;;;8.00;99.90;;;;;;5000468;28;20530;-64
2022/11/05 09:01:34;;;;;;;10.73;7.03;;;8.00;99.90;;;;;;5064423;28;20568;-64
2022/11/05 09:04:03;;;;;;;9.87;6.33;;;8.00;99.90;;;;;;4995362;28;20708;-64
2022/11/05 09:06:31;;;;;;;9.60;6.50;;;8.00;99.90;;;;;;4997280;28;20191;-64
2022/11/05 09:09:01;;;;;;;8.80;6.90;;;8.00;99.90;;;;;;4993461;28;20187;-64
2022/11/05 09:11:29;;;;;;;14.80;6.60;;;8.00;99.90;;;;;;5007210;28;20193;-64
2022/11/05 09:14:17;;;;;;;10.63;6.60;;;8.10;99.90;;;;;;4999358;28;20211;-64
2022/11/05 09:16:46;;;;;;;8.10;6.60;;;8.10;99.90;;;;;;5000646;28;20193;-64
2022/11/05 09:19:14;;;;;;;14.87;6.80;;;8.10;99.90;;;;;;4997609;28;20227;-64
2022/11/05 09:21:43;;;;;;;13.17;6.70;;;8.20;99.90;;;;;;5009180;28;20556;-64
2022/11/05 09:24:13;;;;;;;11.50;6.73;;;8.20;99.90;;;;;;4995519;28;20215;-64
2022/11/05 09:26:41;;;;;;;8.70;6.37;;;8.20;99.90;;;;;;5012371;28;20586;-64
2022/11/05 09:29:09;;;;;;;10.73;6.27;;;8.20;99.90;;;;;;4992558;28;20200;-64
2022/11/05 09:31:42;;;;;;;13.33;6.97;;;8.20;99.90;;;;;;5000446;28;20187;-64
2022/11/05 09:34:10;;;;;;;7.93;6.40;;;8.20;99.90;;;;;;4992893;28;20202;-64
2022/11/05 09:36:38;;;;;;;10.97;6.60;;;8.30;99.90;;;;;;4990851;28;20231;-64
2022/11/05 09:39:06;;;;;;;8.77;6.60;;;8.40;99.90;;;;;;4992029;28;20664;-64
2022/11/05 09:41:39;;;;;;;14.53;7.17;;;8.30;99.90;;;;;;5011876;28;20197;-64
2022/11/05 09:44:13;;;;;;;12.80;6.67;;;8.40;99.90;;;;;;5013633;28;20202;-64
2022/11/05 09:46:48;;;;;;;11.80;6.50;;;8.40;99.90;;;;;;5006470;28;20194;-64
2022/11/05 09:49:26;;;;;;;11.13;6.70;;;8.60;99.90;;;;;;4999978;28;20209;-64
2022/11/05 09:51:56;;;;;;;12.53;7.23;;;8.70;99.90;;;;;;5030596;27;20213;-65
2022/11/05 09:54:28;;;;;;;12.23;6.80;;;8.90;99.90;;;;;;4998352;28;20237;-64
2022/11/05 09:56:59;;;;;;;11.07;7.33;;;9.10;99.90;;;;;;4997463;28;20703;-64
2022/11/05 09:59:35;;;;;;;10.07;6.43;;;9.20;99.90;;;;;;4997805;28;20292;-64
2022/11/05 10:02:11;;;;;;;10.00;6.63;;;9.40;99.90;;;;;;5004278;28;22010;-65
2022/11/05 10:04:41;;;;;;;11.27;6.33;;;9.50;99.90;;;;;;5000517;28;20202;-65
2022/11/05 10:07:15;;;;;;;11.67;6.27;;;9.70;99.90;;;;;;4997091;28;20203;-65
2022/11/05 10:09:48;;;;;;;15.33;6.30;;;9.80;99.90;;;;;;4998638;28;20191;-65
2022/11/05 10:12:22;;;;;;;9.43;5.80;;;10.00;99.90;;;;;;4999173;28;20653;-65
2022/11/05 10:15:07;;;;;;;11.20;6.20;;;9.90;99.90;;;;;;4994480;28;20197;-65
2022/11/05 10:17:37;;;;;;;10.27;5.60;;;9.90;99.90;;;;;;5024230;28;20221;-64
2022/11/05 10:20:14;;;;;;;10.37;5.90;;;9.90;99.90;;;;;;5004755;28;20222;-65
2022/11/05 10:22:42;;;;;;;9.77;5.80;;;9.90;99.90;;;;;;5006513;28;20194;-65
2022/11/05 10:25:19;;;;;;;11.67;5.73;;;9.80;99.90;;;;;;4999852;28;20200;-65
2022/11/05 10:27:52;;;;;;;12.17;5.87;;;9.90;99.90;;;;;;5018525;28;20202;-65
2022/11/05 10:30:21;;;;;;;8.17;5.90;;;10.10;99.90;;;;;;5011309;28;20191;-65
2022/11/05 10:32:54;;;;;;;10.07;5.47;;;10.10;99.90;;;;;;5015446;28;20212;-65
2022/11/05 10:35:24;;;;;;;12.00;5.37;;;10.20;99.90;;;;;;4997960;28;20599;-65
2022/11/05 10:37:53;;;;;;;7.70;5.03;;;10.30;99.90;;;;;;5014043;28;20199;-65
2022/11/05 10:40:31;;;;;;;7.20;5.23;;;10.30;99.90;;;;;;4997293;28;20557;-65
2022/11/05 10:43:06;;;;;;;14.73;5.70;;;10.20;99.90;;;;;;5022755;28;20202;-65
2022/11/05 10:45:46;;;;;;;11.67;5.80;;;10.00;99.90;;;;;;5027898;27;20201;-65
2022/11/05 10:48:45;;;;;;;8.77;5.80;;;10.00;99.90;;;;;;5003301;28;20202;-65
2022/11/05 10:51:16;;;;;;;7.33;5.23;;;10.00;99.90;;;;;;5001482;28;20275;-64
2022/11/05 10:53:51;;;;;;;11.17;5.53;;;10.00;99.90;;;;;;5001518;28;20206;-65
2022/11/05 10:56:30;;;;;;;8.90;5.70;;;10.00;99.90;;;;;;5006041;28;20633;-65
2022/11/05 10:59:01;;;;;;;7.93;5.73;;;9.90;99.90;;;;;;4998596;28;20204;-65
2022/11/05 11:01:36;;;;;;;8.90;5.53;;;9.90;99.90;;;;;;5013716;28;20698;-65
2022/11/05 11:04:14;;;;;;;8.93;5.90;;;10.00;99.90;;;;;;5055580;27;20289;-65
2022/11/05 11:06:48;;;;;;;10.67;5.43;;;10.00;99.90;;;;;;5013982;28;20629;-65
2022/11/05 11:09:23;;;;;;;10.70;5.43;;;10.00;99.90;;;;;;4998618;28;20198;-64
2022/11/05 11:12:00;;;;;;;8.13;5.60;;;10.00;99.90;;;;;;4995871;28;20198;-65
2022/11/05 11:14:30;;;;;;;10.27;5.83;;;10.10;99.90;;;;;;5000711;28;20229;-65
2022/11/05 11:17:23;;;;;;;13.33;5.97;;;10.20;99.90;;;;;;5000339;28;20198;-65
2022/11/05 11:19:52;;;;;;;9.97;6.17;;;10.40;99.90;;;;;;4998191;28;20218;-65
2022/11/05 11:22:21;;;;;;;8.67;6.03;;;10.70;99.90;;;;;;5008358;28;20194;-65
2022/11/05 11:24:52;;;;;;;8.47;5.50;;;11.00;99.90;;;;;;5009083;28;20198;-65
2022/11/05 11:27:27;;;;;;;8.67;5.50;;;11.20;99.90;;;;;;5001280;28;20526;-65
2022/11/05 11:29:58;;;;;;;12.07;5.70;;;11.30;99.90;;;;;;4994836;28;20201;-65
2022/11/05 11:32:33;;;;;;;10.53;5.80;;;11.10;99.90;;;;;;5004012;28;20205;-65
2022/11/05 11:35:02;;;;;;;14.40;5.83;;;11.00;99.90;;;;;;4995217;28;20816;-65
2022/11/05 11:37:33;;;;;;;9.57;6.07;;;11.10;99.90;;;;;;4994216;28;20820;-65
2022/11/05 11:40:04;;;;;;;7.77;5.13;;;10.90;99.90;;;;;;5010067;28;20593;-65
2022/11/05 11:42:34;;;;;;;14.60;5.23;;;10.90;99.90;;;;;;5008783;28;20205;-65
2022/11/05 11:45:16;;;;;;;7.33;5.40;;;10.90;99.90;;;;;;5002856;28;20584;-65
2022/11/05 11:47:49;;;;;;;8.70;5.63;;;10.90;99.90;;;;;;5023411;28;20201;-65
2022/11/05 11:50:33;;;;;;;10.80;5.97;;;10.90;99.90;;;;;;5027859;28;20207;-65
2022/11/05 11:53:34;;;;;;;12.27;6.60;;;10.80;99.90;;;;;;5003350;28;20215;-65
2022/11/05 11:56:11;;;;;;;11.20;6.07;;;10.70;99.90;;;;;;4987565;28;20194;-65
2022/11/05 11:58:42;;;;;;;8.03;5.70;;;10.80;99.90;;;;;;5018026;28;20609;-65
2022/11/05 12:01:45;;;;;;;8.47;5.93;;;10.80;99.90;;;;;;4997299;28;20583;-65
2022/11/05 12:04:34;;;;;;;11.77;6.30;;;10.80;99.90;;;;;;5020797;28;20210;-65
2022/11/05 12:07:13;;;;;;;9.33;6.10;;;10.80;99.90;;;;;;5010314;28;20199;-65
2022/11/05 12:09:58;;;;;;;10.90;6.10;;;10.80;99.90;;;;;;4999113;28;20209;-65
2022/11/05 12:12:44;;;;;;;10.00;6.13;;;10.80;99.90;;;;;;5003345;28;20649;-65
2022/11/05 12:15:27;;;;;;;11.40;6.23;;;10.90;99.90;;;;;;5003102;28;20637;-65
2022/11/05 12:18:02;;;;;;;8.50;6.27;;;10.90;99.90;;;;;;4997255;28;20241;-65
2022/11/05 12:20:45;;;;;;;8.27;6.47;;;10.90;99.90;;;;;;5005978;28;20214;-65
2022/11/05 12:23:35;;;;;;;14.17;6.53;;;10.90;99.90;;;;;;5004864;28;20813;-65
2022/11/05 12:26:10;;;;;;;7.43;5.70;;;11.00;99.90;;;;;;4994740;28;20204;-64
2022/11/05 12:28:54;;;;;;;7.83;5.90;;;11.20;99.90;;;;;;5002155;28;20267;-64
2022/11/05 12:31:48;;;;;;;12.00;6.60;;;11.30;99.90;;;;;;4997046;28;20236;-64
2022/11/05 12:34:35;;;;;;;7.50;5.97;;;11.40;99.90;;;;;;4998700;28;20202;-64
2022/11/05 12:37:16;;;;;;;12.57;6.63;;;11.30;99.90;;;;;;4997170;28;20234;-64
2022/11/05 12:39:59;;;;;;;8.87;5.80;;;11.40;99.90;;;;;;4998213;28;20652;-64
2022/11/05 12:42:40;;;;;;;10.30;6.27;;;11.40;99.90;;;;;;5031024;28;20260;-64
2022/11/05 12:45:22;;;;;;;7.87;5.17;;;11.60;99.90;;;;;;4998496;28;20198;-64
2022/11/05 12:48:05;;;;;;;6.80;5.77;;;11.50;99.90;;;;;;5002345;28;20195;-64
2022/11/05 12:50:43;;;;;;;14.40;6.80;;;11.50;99.90;;;;;;5032026;28;20187;-64
2022/11/05 12:53:52;;;;;;;10.07;5.77;;;11.60;99.90;;;;;;5004390;28;20622;-64
2022/11/05 12:56:30;;;;;;;11.93;6.10;;;11.60;99.90;;;;;;4993277;28;20763;-64
2022/11/05 12:59:03;;;;;;;8.70;5.67;;;11.60;99.90;;;;;;4992689;28;20210;-64
2022/11/05 13:01:35;;;;;;;9.37;5.80;;;11.60;99.90;;;;;;4990605;28;20219;-64
2022/11/05 13:04:12;;;;;;;10.03;6.37;;;11.60;99.90;;;;;;4999502;28;20198;-64
2022/11/05 13:06:44;;;;;;;9.80;6.47;;;11.70;99.90;;;;;;4994294;28;20198;-64
2022/11/05 13:09:16;;;;;;;8.80;6.20;;;11.70;99.90;;;;;;5003666;28;20205;-64
2022/11/05 13:11:49;;;;;;;8.43;6.10;;;11.70;99.90;;;;;;4999058;28;20195;-64
2022/11/05 13:14:21;;;;;;;9.70;6.20;;;11.80;99.90;;;;;;5013954;28;20206;-64
2022/11/05 13:16:56;;;;;;;6.57;5.90;;;11.80;99.90;;;;;;5003748;28;20652;-64
2022/11/05 13:19:28;;;;;;;6.97;5.67;;;11.80;99.90;;;;;;5001072;28;20230;-64
2022/11/05 13:22:06;;;;;;;8.83;5.83;;;11.80;99.90;;;;;;4993757;28;20317;-64
2022/11/05 13:24:40;;;;;;;11.00;6.30;;;11.90;99.90;;;;;;5001967;28;20198;-64
2022/11/05 13:27:23;;;;;;;10.57;6.63;;;11.90;99.90;;;;;;4989776;28;20216;-64
2022/11/05 13:29:56;;;;;;;10.90;5.87;;;11.90;99.90;;;;;;5000920;28;20277;-64
2022/11/05 13:32:30;;;;;;;8.67;5.63;;;11.90;99.90;;;;;;4993264;28;20203;-64
2022/11/05 13:35:02;;;;;;;13.63;6.43;;;11.90;99.90;;;;;;5000814;28;20185;-64
2022/11/05 13:40:28;;;;;;;12.23;5.93;;;11.90;99.90;;;;;;4998132;28;20197;-64
2022/11/05 13:43:16;;;;;;;11.50;6.63;;;11.80;99.90;;;;;;4999607;28;20224;-64
2022/11/05 13:46:10;;;;;;;9.43;6.37;;;11.70;99.90;;;;;;4999400;28;20893;-64
2022/11/05 13:49:07;;;;;;;10.47;5.80;;;11.60;99.90;;;;;;5016454;28;20206;-64
2022/11/05 13:51:51;;;;;;;8.60;6.10;;;11.60;99.90;;;;;;5010775;28;20281;-64
2022/11/05 13:54:51;;;;;;;11.53;6.57;;;11.60;99.90;;;;;;4995854;28;20696;-64